createdAt,value
2023-03-17T00:02:46.822Z,3.58
2023-03-17T00:05:48.287Z,2.78
2023-03-17T00:08:49.580Z,3.45
2023-03-17T00:11:50.961Z,3.63
2023-03-17T00:14:52.284Z,3.97
2023-03-17T00:17:54.573Z,2.70
2023-03-17T00:20:55.906Z,2.65
2023-03-17T00:23:57.612Z,2.90
2023-03-17T00:26:59.030Z,2.38
2023-03-17T00:30:00.379Z,2.22
2023-03-17T00:33:01.779Z,2.15
2023-03-17T00:36:03.346Z,2.13
2023-03-17T00:39:06.501Z,2.63
2023-03-17T00:42:07.955Z,2.78
2023-03-17T00:45:10.129Z,1.83
2023-03-17T00:48:15.801Z,2.95
2023-03-17T00:51:17.358Z,1.58
2023-03-17T00:54:20.632Z,1.67
2023-03-17T00:57:22.660Z,1.42
2023-03-17T01:00:25.427Z,1.30
2023-03-17T01:03:27.546Z,1.45
2023-03-17T01:06:28.996Z,1.50
2023-03-17T01:09:30.841Z,1.52
2023-03-17T01:12:33.036Z,1.45
2023-03-17T01:15:34.441Z,1.58
2023-03-17T01:18:35.753Z,1.42
2023-03-17T01:21:37.056Z,1.63
2023-03-17T01:24:38.960Z,2.25
2023-03-17T01:27:41.694Z,3.80
2023-03-17T01:30:43.752Z,2.05
2023-03-17T01:33:45.396Z,2.95
2023-03-17T01:36:47.373Z,2.05
2023-03-17T01:39:48.667Z,2.10
2023-03-17T01:43:02.169Z,2.22
2023-03-17T01:46:22.322Z,2.10
2023-03-17T01:49:37.405Z,2.75
2023-03-17T01:52:39.753Z,2.25
2023-03-17T01:55:41.789Z,2.47
2023-03-17T01:58:43.561Z,3.00
2023-03-17T02:01:47.217Z,4.00
2023-03-17T02:04:50.374Z,2.80
2023-03-17T02:07:55.562Z,3.00
2023-03-17T02:10:57.239Z,2.25
2023-03-17T02:13:58.602Z,2.90
2023-03-17T02:16:59.954Z,4.05
2023-03-17T02:20:17.040Z,2.30
2023-03-17T02:23:22.231Z,3.03
2023-03-17T02:26:24.632Z,3.30
2023-03-17T02:29:25.963Z,2.75
2023-03-17T02:32:27.356Z,2.38
2023-03-17T02:35:28.884Z,2.90
2023-03-17T02:38:30.178Z,3.38
2023-03-17T02:41:32.552Z,3.22
2023-03-17T02:44:33.865Z,2.95
2023-03-17T02:47:35.599Z,2.50
2023-03-17T02:50:37.398Z,3.95
2023-03-17T02:53:38.660Z,3.05
2023-03-17T02:56:40.043Z,3.10
2023-03-17T02:59:41.637Z,2.88
2023-03-17T03:02:42.998Z,2.60
2023-03-17T03:05:44.338Z,2.70
2023-03-17T03:08:46.052Z,3.15
2023-03-17T03:11:47.512Z,3.55
2023-03-17T03:14:48.904Z,3.70
2023-03-17T03:17:50.700Z,3.35
2023-03-17T03:20:51.948Z,2.25
2023-03-17T03:23:53.195Z,2.70
2023-03-17T03:26:54.436Z,2.22
2023-03-17T03:29:55.866Z,1.92
2023-03-17T03:32:57.169Z,2.13
2023-03-17T03:35:59.291Z,2.13
2023-03-17T03:39:01.143Z,2.58
2023-03-17T03:42:02.382Z,3.03
2023-03-17T03:45:04.178Z,2.53
2023-03-17T03:48:05.546Z,3.58
2023-03-17T03:51:07.031Z,2.60
2023-03-17T03:54:08.314Z,3.15
2023-03-17T03:57:09.605Z,3.65
2023-03-17T04:00:11.612Z,4.28
2023-03-17T04:03:13.643Z,3.22
2023-03-17T04:06:14.929Z,3.17
2023-03-17T04:09:16.192Z,3.25
2023-03-17T04:12:17.899Z,3.15
2023-03-17T04:15:19.730Z,2.03
2023-03-17T04:18:21.007Z,2.00
2023-03-17T04:21:22.317Z,2.50
2023-03-17T04:24:23.639Z,2.58
2023-03-17T04:27:24.966Z,2.50
2023-03-17T04:30:26.338Z,3.25
2023-03-17T04:33:27.623Z,3.30
2023-03-17T04:36:29.013Z,3.22
2023-03-17T04:39:30.301Z,2.47
2023-03-17T04:42:31.640Z,2.58
2023-03-17T04:45:33.267Z,2.13
2023-03-17T04:48:35.255Z,3.15
2023-03-17T04:51:36.903Z,2.42
2023-03-17T04:54:38.225Z,1.83
2023-03-17T04:57:39.496Z,2.13
2023-03-17T05:00:41.131Z,2.13
2023-03-17T05:03:42.457Z,2.85
2023-03-17T05:06:43.784Z,2.88
2023-03-17T05:09:45.033Z,2.05
2023-03-17T05:12:46.361Z,2.38
2023-03-17T05:15:48.410Z,3.17
2023-03-17T05:18:49.681Z,2.45
2023-03-17T05:21:51.492Z,3.80
2023-03-17T05:24:52.770Z,2.83
2023-03-17T05:27:54.065Z,3.10
2023-03-17T05:30:55.530Z,3.30
2023-03-17T05:33:57.095Z,2.90
2023-03-17T05:36:58.347Z,2.60
2023-03-17T05:40:00.066Z,2.67
2023-03-17T05:43:01.844Z,3.10
2023-03-17T05:46:03.816Z,3.42
2023-03-17T05:49:05.140Z,4.13
2023-03-17T05:52:06.482Z,3.08
2023-03-17T05:55:08.346Z,3.00
2023-03-17T05:58:09.682Z,4.80
2023-03-17T06:01:11.059Z,4.13
2023-03-17T06:04:12.589Z,4.57
2023-03-17T06:07:13.911Z,3.45
2023-03-17T06:10:15.347Z,3.90
2023-03-17T06:13:16.715Z,5.15
2023-03-17T06:16:18.152Z,4.18
2023-03-17T06:19:19.423Z,5.20
2023-03-17T06:22:20.808Z,3.53
2023-03-17T06:25:22.250Z,6.03
2023-03-17T06:28:24.045Z,3.75
2023-03-17T06:31:25.519Z,5.07
2023-03-17T06:34:27.418Z,3.55
2023-03-17T06:37:29.800Z,5.80
2023-03-17T06:40:32.058Z,4.80
2023-03-17T06:43:33.422Z,4.57
2023-03-17T06:46:34.961Z,3.65
2023-03-17T06:49:36.384Z,5.03
2023-03-17T06:52:38.370Z,5.50
2023-03-17T06:55:39.650Z,4.43
2023-03-17T06:58:41.833Z,4.43
2023-03-17T07:01:44.226Z,3.83
2023-03-17T07:04:45.600Z,4.03
2023-03-17T07:07:47.140Z,4.78
2023-03-17T07:10:48.911Z,3.83
2023-03-17T07:13:50.977Z,5.70
2023-03-17T07:16:52.396Z,4.78
2023-03-17T07:19:53.712Z,6.15
2023-03-17T07:22:55.001Z,4.47
2023-03-17T07:25:57.386Z,5.22
2023-03-17T07:29:01.282Z,5.03
2023-03-17T07:32:04.018Z,5.25
2023-03-17T07:35:05.805Z,5.00
2023-03-17T07:38:07.305Z,5.20
2023-03-17T07:41:10.780Z,4.43
2023-03-17T07:44:12.482Z,3.42
2023-03-17T07:47:14.676Z,3.65
2023-03-17T07:50:16.583Z,3.50
2023-03-17T07:53:18.473Z,2.92
2023-03-17T07:56:19.822Z,3.50
2023-03-17T07:59:21.176Z,3.17
2023-03-17T08:02:22.639Z,2.72
2023-03-17T08:05:24.185Z,3.53
2023-03-17T08:08:25.749Z,3.17
2023-03-17T08:11:29.361Z,3.20
2023-03-17T08:14:30.781Z,3.13
2023-03-17T08:17:32.518Z,3.17
2023-03-17T08:20:34.884Z,2.78
2023-03-17T08:23:36.564Z,3.92
2023-03-17T08:26:38.132Z,3.25
2023-03-17T08:29:39.735Z,3.38
2023-03-17T08:32:41.169Z,2.80
2023-03-17T08:35:42.693Z,3.40
2023-03-17T08:38:44.810Z,3.38
2023-03-17T08:41:46.459Z,4.57
2023-03-17T08:44:47.771Z,3.63
2023-03-17T08:47:49.072Z,3.47
2023-03-17T08:50:50.512Z,3.67
2023-03-17T08:53:52.535Z,3.53
2023-03-17T08:56:53.899Z,3.88
2023-03-17T08:59:55.847Z,3.97
2023-03-17T09:02:58.757Z,3.10
2023-03-17T09:06:00.437Z,4.15
2023-03-17T09:09:01.724Z,3.65
2023-03-17T09:12:05.594Z,2.92
2023-03-17T09:15:07.647Z,3.55
2023-03-17T09:18:09.313Z,2.47
2023-03-17T09:21:13.872Z,2.42
2023-03-17T09:24:15.432Z,2.90
2023-03-17T09:27:16.773Z,2.78
2023-03-17T09:30:18.770Z,2.60
2023-03-17T09:33:20.070Z,2.90
2023-03-17T09:36:21.323Z,2.90
2023-03-17T09:39:24.046Z,2.97
2023-03-17T09:42:35.039Z,3.05
2023-03-17T09:45:42.915Z,3.70
2023-03-17T09:48:49.921Z,3.33
2023-03-17T09:51:51.560Z,3.38
2023-03-17T09:54:52.856Z,4.90
2023-03-17T09:57:55.860Z,3.20
2023-03-17T10:00:57.518Z,3.08
2023-03-17T10:03:58.840Z,3.30
2023-03-17T10:07:04.911Z,3.47
2023-03-17T10:10:15.264Z,3.60
2023-03-17T10:16:36.389Z,2.90
2023-03-17T10:19:37.724Z,3.40
2023-03-17T10:22:42.077Z,2.97
2023-03-17T10:25:43.390Z,3.20
2023-03-17T10:28:45.008Z,3.13
2023-03-17T10:31:46.532Z,2.55
2023-03-17T10:34:48.559Z,3.28
2023-03-17T10:37:49.877Z,2.78
2023-03-17T10:40:56.437Z,2.85
2023-03-17T10:43:57.774Z,3.20
2023-03-17T10:46:59.269Z,3.17
2023-03-17T10:50:16.879Z,3.70
2023-03-17T10:53:30.588Z,3.63
2023-03-17T10:56:34.892Z,3.50
2023-03-17T10:59:44.579Z,3.50
2023-03-17T11:02:48.422Z,2.75
2023-03-17T11:06:10.163Z,2.70
2023-03-17T11:09:21.253Z,3.33
2023-03-17T11:12:25.479Z,3.28
2023-03-17T11:15:31.407Z,3.30
2023-03-17T11:18:35.789Z,3.42
2023-03-17T11:22:00.008Z,2.92
2023-03-17T11:25:14.985Z,2.60
2023-03-17T11:28:20.618Z,2.72
2023-03-17T11:31:28.085Z,2.58
2023-03-17T11:34:35.360Z,3.80
2023-03-17T11:37:39.513Z,5.18
2023-03-17T11:41:17.247Z,2.38
2023-03-17T11:44:28.886Z,2.33
2023-03-17T11:47:48.573Z,2.90
2023-03-17T11:50:49.788Z,3.25
2023-03-17T11:54:02.876Z,3.55
2023-03-17T11:57:08.103Z,2.88
2023-03-17T12:00:28.307Z,2.35
2023-03-17T12:03:35.910Z,2.90
2023-03-17T12:06:41.888Z,2.90
2023-03-17T12:10:09.478Z,2.20
2023-03-17T12:13:20.229Z,2.25
2023-03-17T12:16:34.263Z,3.40
2023-03-17T12:19:52.303Z,2.47
2023-03-17T12:22:57.114Z,3.30
2023-03-17T12:26:16.747Z,2.53
2023-03-17T12:29:21.933Z,2.40
2023-03-17T12:32:36.174Z,2.13
2023-03-17T12:35:38.939Z,2.30
2023-03-17T12:38:59.148Z,2.53
2023-03-17T12:42:23.626Z,2.17
2023-03-17T12:45:37.255Z,1.95
2023-03-17T12:48:50.973Z,1.90
2023-03-17T12:52:02.984Z,1.80
2023-03-17T12:55:09.578Z,2.17
2023-03-17T12:58:28.981Z,2.10
2023-03-17T13:01:59.604Z,1.50
2023-03-17T13:05:05.135Z,1.67
2023-03-17T13:08:10.760Z,1.70
2023-03-17T13:11:31.006Z,1.80
2023-03-17T13:14:47.685Z,1.70
2023-03-17T13:17:49.354Z,2.10
2023-03-17T13:20:50.577Z,1.50
2023-03-17T13:24:11.368Z,1.70
2023-03-17T13:27:14.400Z,1.48
2023-03-17T13:30:26.754Z,2.17
2023-03-17T13:33:31.090Z,2.65
2023-03-17T13:36:32.440Z,2.30
2023-03-17T13:40:07.900Z,2.53
2023-03-17T13:43:21.298Z,2.22
2023-03-17T13:46:26.823Z,2.30
2023-03-17T13:49:29.652Z,2.30
2023-03-17T13:52:32.866Z,2.15
2023-03-17T13:55:37.888Z,2.22
2023-03-17T13:58:50.697Z,2.10
2023-03-17T14:02:00.745Z,1.90
2023-03-17T14:05:18.203Z,2.00
2023-03-17T14:08:28.819Z,2.00
2023-03-17T14:11:32.927Z,2.30
2023-03-17T14:14:38.197Z,1.90
2023-03-17T14:18:03.654Z,2.60
2023-03-17T14:21:10.526Z,2.17
2023-03-17T14:24:21.235Z,2.42
2023-03-17T14:27:24.085Z,2.00
2023-03-17T14:30:32.406Z,2.22
2023-03-17T14:33:38.080Z,2.55
2023-03-17T14:36:39.594Z,2.45
2023-03-17T14:39:45.238Z,2.10
2023-03-17T14:42:46.616Z,2.63
2023-03-17T14:45:59.669Z,2.50
2023-03-17T14:49:04.435Z,2.60
2023-03-17T14:52:06.080Z,2.38
2023-03-17T14:55:08.216Z,2.58
2023-03-17T14:58:18.228Z,2.60
2023-03-17T15:01:32.408Z,2.63
2023-03-17T15:04:34.062Z,2.35
2023-03-17T15:07:39.809Z,2.38
2023-03-17T15:10:42.973Z,3.20
2023-03-17T15:13:44.365Z,2.60
2023-03-17T15:16:49.568Z,3.13
2023-03-17T15:19:52.603Z,2.30
2023-03-17T15:22:58.964Z,2.65
2023-03-17T15:26:02.900Z,2.13
2023-03-17T15:29:04.238Z,2.55
2023-03-17T15:32:15.455Z,3.05
2023-03-17T15:35:16.891Z,2.33
2023-03-17T15:38:18.142Z,4.10
2023-03-17T15:41:19.599Z,4.25
2023-03-17T15:44:20.937Z,2.25
2023-03-17T15:47:23.620Z,2.65
2023-03-17T15:50:26.516Z,2.80
2023-03-17T15:53:28.189Z,2.70
2023-03-17T15:56:29.444Z,3.25
2023-03-17T15:59:30.693Z,2.40
2023-03-17T16:02:33.412Z,2.85
2023-03-17T16:05:35.997Z,2.22
2023-03-17T16:08:38.409Z,2.40
2023-03-17T16:11:40.544Z,2.70
2023-03-17T16:14:42.716Z,2.10
2023-03-17T16:17:44.894Z,2.30
2023-03-17T16:20:47.715Z,2.45
2023-03-17T16:23:49.144Z,2.03
2023-03-17T16:26:50.876Z,2.53
2023-03-17T16:29:52.180Z,2.33
2023-03-17T16:32:54.553Z,1.85
2023-03-17T16:35:57.440Z,2.05
2023-03-17T16:38:59.257Z,1.80
2023-03-17T16:42:00.967Z,1.70
2023-03-17T16:45:02.270Z,2.80
2023-03-17T16:48:04.014Z,2.28
2023-03-17T16:51:05.579Z,2.10
2023-03-17T16:54:06.863Z,2.05
2023-03-17T16:57:11.432Z,2.90
2023-03-17T17:00:20.334Z,3.10
2023-03-17T17:03:21.669Z,2.70
2023-03-17T17:06:23.533Z,2.78
2023-03-17T17:09:24.848Z,1.98
2023-03-17T17:12:26.157Z,2.53
2023-03-17T17:15:28.797Z,4.07
2023-03-17T17:18:30.455Z,4.03
2023-03-17T17:21:32.985Z,3.95
2023-03-17T17:24:34.321Z,4.75
2023-03-17T17:27:40.197Z,6.78
2023-03-17T17:30:44.928Z,9.00
2023-03-17T17:33:46.240Z,6.68
2023-03-17T17:36:47.583Z,7.72
2023-03-17T17:39:49.098Z,6.13
2023-03-17T17:42:51.016Z,5.70
2023-03-17T17:45:52.830Z,4.75
2023-03-17T17:48:54.158Z,4.78
2023-03-17T17:51:55.478Z,5.43
2023-03-17T17:54:57.117Z,6.90
2023-03-17T17:57:58.529Z,6.30
2023-03-17T18:00:59.973Z,4.95
2023-03-17T18:04:01.316Z,4.68
2023-03-17T18:07:02.577Z,6.78
2023-03-17T18:10:05.010Z,5.20
2023-03-17T18:13:06.268Z,4.28
2023-03-17T18:16:09.980Z,3.53
2023-03-17T18:19:12.558Z,2.55
2023-03-17T18:22:14.603Z,2.45
2023-03-17T18:25:16.171Z,2.40
2023-03-17T18:28:17.896Z,2.65
2023-03-17T18:31:22.229Z,2.88
2023-03-17T18:34:32.343Z,6.47
2023-03-17T18:37:34.661Z,6.60
2023-03-17T18:40:36.408Z,5.88
2023-03-17T18:43:38.144Z,3.35
2023-03-17T18:46:39.553Z,2.78
2023-03-17T18:49:40.852Z,3.20
2023-03-17T18:52:43.587Z,4.35
2023-03-17T18:55:45.424Z,4.15
2023-03-17T18:58:47.196Z,4.55
2023-03-17T19:01:48.468Z,3.83
2023-03-17T19:04:49.785Z,4.30
2023-03-17T19:07:51.164Z,4.28
2023-03-17T19:10:52.552Z,4.03
2023-03-17T19:13:53.908Z,3.78
2023-03-17T19:16:55.553Z,3.63
2023-03-17T19:19:56.996Z,5.03
2023-03-17T19:22:58.362Z,4.68
2023-03-17T19:25:59.783Z,4.30
2023-03-17T19:29:01.452Z,3.55
2023-03-17T19:32:02.820Z,3.67
2023-03-17T19:35:04.282Z,3.13
2023-03-17T19:38:08.078Z,4.45
2023-03-17T19:41:09.508Z,3.03
2023-03-17T19:44:10.919Z,4.13
2023-03-17T19:47:12.270Z,3.22
2023-03-17T19:50:14.556Z,3.50
2023-03-17T19:53:16.444Z,4.18
2023-03-17T19:56:17.935Z,4.18
2023-03-17T19:59:19.750Z,4.63
2023-03-17T20:02:21.433Z,4.95
2023-03-17T20:05:22.683Z,3.95
2023-03-17T20:08:24.681Z,4.50
2023-03-17T20:11:27.143Z,4.22
2023-03-17T20:14:28.447Z,5.18
2023-03-17T20:17:29.774Z,4.72
2023-03-17T20:20:31.326Z,3.88
2023-03-17T20:23:33.232Z,4.25
2023-03-17T20:26:34.560Z,3.58
2023-03-17T20:29:36.497Z,3.33
2023-03-17T20:32:38.048Z,3.58
2023-03-17T20:35:40.370Z,3.50
2023-03-17T20:38:43.639Z,6.35
2023-03-17T20:41:48.202Z,5.22
2023-03-17T20:44:56.792Z,4.20
2023-03-17T20:47:58.140Z,4.00
2023-03-17T20:51:00.264Z,4.40
2023-03-17T20:54:05.177Z,6.40
2023-03-17T20:57:07.137Z,4.50
2023-03-17T21:00:12.620Z,5.00
2023-03-17T21:03:13.887Z,4.45
2023-03-17T21:06:15.264Z,4.95
2023-03-17T21:09:16.651Z,4.43
2023-03-17T21:12:18.906Z,4.72
2023-03-17T21:15:22.815Z,5.25
2023-03-17T21:18:24.166Z,5.93
2023-03-17T21:21:25.788Z,6.47
2023-03-17T21:24:32.353Z,5.15
2023-03-17T21:27:34.168Z,5.25
2023-03-17T21:30:36.862Z,5.00
2023-03-17T21:33:38.313Z,5.05
2023-03-17T21:36:39.608Z,5.20
2023-03-17T21:39:40.967Z,5.05
2023-03-17T21:42:42.429Z,5.35
2023-03-17T21:45:44.265Z,4.82
2023-03-17T21:48:45.686Z,6.30
2023-03-17T21:51:47.075Z,5.03
2023-03-17T21:54:48.875Z,5.22
2023-03-17T21:57:50.470Z,5.45
2023-03-17T22:00:52.213Z,5.18
2023-03-17T22:03:53.734Z,5.03
2023-03-17T22:06:55.901Z,4.55
2023-03-17T22:09:57.811Z,4.93
2023-03-17T22:12:59.131Z,4.38
2023-03-17T22:16:00.482Z,4.30
2023-03-17T22:19:01.832Z,4.25
2023-03-17T22:22:03.727Z,4.43
2023-03-17T22:25:06.161Z,4.95
2023-03-17T22:28:08.576Z,5.20
2023-03-17T22:31:17.633Z,4.53
2023-03-17T22:34:19.337Z,4.97
2023-03-17T22:37:20.702Z,4.40
2023-03-17T22:40:22.375Z,4.70
2023-03-17T22:43:23.688Z,4.78
2023-03-17T22:46:25.051Z,4.57
2023-03-17T22:49:26.448Z,4.13
2023-03-17T22:52:27.817Z,5.20
2023-03-17T22:55:29.125Z,4.95
2023-03-17T22:58:30.815Z,4.47
2023-03-17T23:01:33.302Z,4.50
2023-03-17T23:04:35.883Z,5.18
2023-03-17T23:07:49.529Z,4.47
2023-03-17T23:10:51.084Z,4.63
2023-03-17T23:13:53.053Z,4.68
2023-03-17T23:16:54.716Z,3.78
2023-03-17T23:19:56.167Z,4.88
2023-03-17T23:22:57.922Z,4.50
2023-03-17T23:25:59.445Z,4.90
2023-03-17T23:29:00.750Z,4.28
2023-03-17T23:32:02.122Z,4.70
2023-03-17T23:35:03.648Z,4.13
2023-03-17T23:38:05.006Z,4.47
2023-03-17T23:41:07.556Z,4.53
2023-03-17T23:44:09.824Z,3.70
2023-03-17T23:47:11.229Z,3.83
2023-03-17T23:50:13.345Z,3.97
2023-03-17T23:53:14.796Z,4.38
2023-03-17T23:56:16.164Z,4.13
2023-03-17T23:59:17.665Z,4.70
